sensor_id;sensor_type;location;lat;lon;timestamp;pressure;altitude;pressure_sealevel;temperature;humidity
7168;BME280;3625;51.762;14.320;2024-03-29T00:01:38;99131.72;;;7.62;100.00
7168;BME280;3625;51.762;14.320;2024-03-29T00:04:06;99142.84;;;7.43;100.00
7168;BME280;3625;51.762;14.320;2024-03-29T00:06:32;99138.16;;;7.25;100.00
7168;BME280;3625;51.762;14.320;2024-03-29T00:08:59;99145.56;;;7.11;100.00
7168;BME280;3625;51.762;14.320;2024-03-29T00:11:25;99156.41;;;7.00;100.00
7168;BME280;3625;51.762;14.320;2024-03-29T00:13:52;99149.66;;;6.92;100.00
7168;BME280;3625;51.762;14.320;2024-03-29T00:16:18;99163.78;;;6.88;100.00
7168;BME280;3625;51.762;14.320;2024-03-29T00:18:45;99161.31;;;6.81;100.00
7168;BME280;3625;51.762;14.320;2024-03-29T00:21:13;99166.81;;;6.74;100.00
7168;BME280;3625;51.762;14.320;2024-03-29T00:23:40;99117.88;;;6.37;100.00
7168;BME280;3625;51.762;14.320;2024-03-29T00:26:06;99181.94;;;6.64;100.00
7168;BME280;3625;51.762;14.320;2024-03-29T00:28:33;99182.91;;;6.60;100.00
7168;BME280;3625;51.762;14.320;2024-03-29T00:30:59;99175.22;;;6.54;100.00
7168;BME280;3625;51.762;14.320;2024-03-29T00:33:26;99177.25;;;6.43;100.00
7168;BME280;3625;51.762;14.320;2024-03-29T00:35:52;99176.66;;;6.32;100.00
7168;BME280;3625;51.762;14.320;2024-03-29T00:38:20;99172.59;;;6.20;100.00
7168;BME280;3625;51.762;14.320;2024-03-29T00:40:47;99183.28;;;6.13;100.00
7168;BME280;3625;51.762;14.320;2024-03-29T00:43:13;99186.13;;;6.05;100.00
7168;BME280;3625;51.762;14.320;2024-03-29T00:45:40;99185.50;;;5.94;100.00
7168;BME280;3625;51.762;14.320;2024-03-29T00:48:07;99186.50;;;5.88;100.00
7168;BME280;3625;51.762;14.320;2024-03-29T00:50:34;99184.06;;;5.79;100.00
7168;BME280;3625;51.762;14.320;2024-03-29T00:53:00;99178.09;;;5.73;100.00
7168;BME280;3625;51.762;14.320;2024-03-29T00:55:28;99186.06;;;5.68;100.00
7168;BME280;3625;51.762;14.320;2024-03-29T00:57:55;99185.28;;;5.64;100.00
7168;BME280;3625;51.762;14.320;2024-03-29T01:00:22;99182.69;;;5.63;100.00
7168;BME280;3625;51.762;14.320;2024-03-29T01:02:48;99187.22;;;5.55;100.00
7168;BME280;3625;51.762;14.320;2024-03-29T01:05:15;99193.63;;;5.43;100.00
7168;BME280;3625;51.762;14.320;2024-03-29T01:07:42;99192.94;;;5.35;100.00
7168;BME280;3625;51.762;14.320;2024-03-29T01:10:09;99194.88;;;5.27;100.00
7168;BME280;3625;51.762;14.320;2024-03-29T01:12:37;99185.44;;;5.18;100.00
7168;BME280;3625;51.762;14.320;2024-03-29T01:15:05;99193.50;;;5.09;100.00
7168;BME280;3625;51.762;14.320;2024-03-29T01:17:31;99177.06;;;5.01;100.00
7168;BME280;3625;51.762;14.320;2024-03-29T01:19:58;99182.44;;;4.93;100.00
7168;BME280;3625;51.762;14.320;2024-03-29T01:22:24;99190.91;;;5.06;100.00
7168;BME280;3625;51.762;14.320;2024-03-29T01:24:51;99184.50;;;5.19;100.00
7168;BME280;3625;51.762;14.320;2024-03-29T01:27:17;99182.53;;;5.30;100.00
7168;BME280;3625;51.762;14.320;2024-03-29T01:29:45;99180.63;;;5.37;100.00
7168;BME280;3625;51.762;14.320;2024-03-29T01:32:12;99189.38;;;5.38;100.00
7168;BME280;3625;51.762;14.320;2024-03-29T01:34:38;99189.44;;;5.35;100.00
7168;BME280;3625;51.762;14.320;2024-03-29T01:37:05;99191.19;;;5.36;100.00
7168;BME280;3625;51.762;14.320;2024-03-29T01:39:32;99189.50;;;5.31;100.00
7168;BME280;3625;51.762;14.320;2024-03-29T01:41:58;99186.16;;;5.25;100.00
7168;BME280;3625;51.762;14.320;2024-03-29T01:44:25;99187.94;;;5.23;100.00
7168;BME280;3625;51.762;14.320;2024-03-29T01:46:53;99183.56;;;5.23;100.00
7168;BME280;3625;51.762;14.320;2024-03-29T01:49:21;99183.22;;;5.39;100.00
7168;BME280;3625;51.762;14.320;2024-03-29T01:51:49;99183.22;;;5.39;100.00
7168;BME280;3625;51.762;14.320;2024-03-29T01:54:18;99180.59;;;5.39;100.00
7168;BME280;3625;51.762;14.320;2024-03-29T01:56:46;99181.63;;;5.31;100.00
7168;BME280;3625;51.762;14.320;2024-03-29T01:59:17;99183.56;;;5.23;100.00
7168;BME280;3625;51.762;14.320;2024-03-29T02:01:46;99180.13;;;5.20;100.00
7168;BME280;3625;51.762;14.320;2024-03-29T02:04:16;99181.06;;;5.19;100.00
7168;BME280;3625;51.762;14.320;2024-03-29T02:06:44;99179.34;;;5.16;100.00
7168;BME280;3625;51.762;14.320;2024-03-29T02:09:12;99174.16;;;5.13;100.00
7168;BME280;3625;51.762;14.320;2024-03-29T02:11:40;99183.88;;;5.10;100.00
7168;BME280;3625;51.762;14.320;2024-03-29T02:14:07;99187.31;;;5.10;100.00
7168;BME280;3625;51.762;14.320;2024-03-29T02:16:35;99191.75;;;5.08;100.00
7168;BME280;3625;51.762;14.320;2024-03-29T02:19:04;99195.09;;;5.16;100.00
7168;BME280;3625;51.762;14.320;2024-03-29T02:21:37;99194.25;;;5.14;100.00
7168;BME280;3625;51.762;14.320;2024-03-29T02:24:12;99203.03;;;5.12;100.00
7168;BME280;3625;51.762;14.320;2024-03-29T02:26:42;99197.75;;;5.13;100.00
7168;BME280;3625;51.762;14.320;2024-03-29T02:29:11;99203.91;;;5.11;100.00
7168;BME280;3625;51.762;14.320;2024-03-29T02:31:38;99202.13;;;5.13;100.00
7168;BME280;3625;51.762;14.320;2024-03-29T02:34:06;99206.34;;;5.20;100.00
7168;BME280;3625;51.762;14.320;2024-03-29T02:36:34;99207.97;;;5.27;100.00
7168;BME280;3625;51.762;14.320;2024-03-29T02:39:01;99211.38;;;5.30;100.00
7168;BME280;3625;51.762;14.320;2024-03-29T02:41:30;99191.47;;;5.22;100.00
7168;BME280;3625;51.762;14.320;2024-03-29T02:43:58;99206.97;;;5.32;100.00
7168;BME280;3625;51.762;14.320;2024-03-29T02:46:26;99215.47;;;5.44;100.00
7168;BME280;3625;51.762;14.320;2024-03-29T02:48:53;99222.31;;;5.51;100.00
7168;BME280;3625;51.762;14.320;2024-03-29T02:51:20;99224.06;;;5.50;100.00
7168;BME280;3625;51.762;14.320;2024-03-29T02:53:47;99220.59;;;5.50;100.00
7168;BME280;3625;51.762;14.320;2024-03-29T02:56:14;99229.34;;;5.49;100.00
7168;BME280;3625;51.762;14.320;2024-03-29T02:58:46;99223.97;;;5.55;100.00
7168;BME280;3625;51.762;14.320;2024-03-29T03:01:12;99226.59;;;5.55;100.00
7168;BME280;3625;51.762;14.320;2024-03-29T03:03:40;99223.19;;;5.51;100.00
7168;BME280;3625;51.762;14.320;2024-03-29T03:06:06;99228.44;;;5.50;100.00
7168;BME280;3625;51.762;14.320;2024-03-29T03:08:34;99229.28;;;5.52;100.00
7168;BME280;3625;51.762;14.320;2024-03-29T03:11:18;99227.59;;;5.49;100.00
7168;BME280;3625;51.762;14.320;2024-03-29T03:13:47;99204.41;;;5.29;100.00
7168;BME280;3625;51.762;14.320;2024-03-29T03:16:15;99246.06;;;5.45;100.00
7168;BME280;3625;51.762;14.320;2024-03-29T03:18:42;99236.47;;;5.44;100.00
7168;BME280;3625;51.762;14.320;2024-03-29T03:21:08;99244.34;;;5.42;100.00
7168;BME280;3625;51.762;14.320;2024-03-29T03:23:36;99248.75;;;5.40;100.00
7168;BME280;3625;51.762;14.320;2024-03-29T03:26:03;99253.13;;;5.40;100.00
7168;BME280;3625;51.762;14.320;2024-03-29T03:28:31;99252.28;;;5.39;100.00
7168;BME280;3625;51.762;14.320;2024-03-29T03:30:59;99242.66;;;5.40;100.00
7168;BME280;3625;51.762;14.320;2024-03-29T03:33:26;99247.00;;;5.41;100.00
7168;BME280;3625;51.762;14.320;2024-03-29T03:35:53;99221.94;;;5.27;100.00
7168;BME280;3625;51.762;14.320;2024-03-29T03:38:20;99243.56;;;5.37;100.00
7168;BME280;3625;51.762;14.320;2024-03-29T03:40:46;99238.13;;;5.46;100.00
7168;BME280;3625;51.762;14.320;2024-03-29T03:43:14;99250.38;;;5.46;100.00
7168;BME280;3625;51.762;14.320;2024-03-29T03:45:41;99250.47;;;5.43;100.00
7168;BME280;3625;51.762;14.320;2024-03-29T03:48:12;99242.59;;;5.43;100.00
7168;BME280;3625;51.762;14.320;2024-03-29T03:50:38;99233.59;;;5.54;100.00
7168;BME280;3625;51.762;14.320;2024-03-29T03:53:07;99203.38;;;5.37;100.00
7168;BME280;3625;51.762;14.320;2024-03-29T03:55:36;99231.97;;;5.49;100.00
7168;BME280;3625;51.762;14.320;2024-03-29T03:58:04;99237.22;;;5.49;100.00
7168;BME280;3625;51.762;14.320;2024-03-29T04:00:30;99235.28;;;5.57;100.00
7168;BME280;3625;51.762;14.320;2024-03-29T04:02:58;99236.97;;;5.61;100.00
7168;BME280;3625;51.762;14.320;2024-03-29T04:05:26;99233.44;;;5.62;100.00
7168;BME280;3625;51.762;14.320;2024-03-29T04:07:53;99241.31;;;5.62;100.00
7168;BME280;3625;51.762;14.320;2024-03-29T04:10:20;99229.88;;;5.64;100.00
7168;BME280;3625;51.762;14.320;2024-03-29T04:12:47;99237.03;;;5.58;100.00
7168;BME280;3625;51.762;14.320;2024-03-29T04:15:14;99218.66;;;5.58;100.00
7168;BME280;3625;51.762;14.320;2024-03-29T04:17:41;99217.91;;;5.53;100.00
7168;BME280;3625;51.762;14.320;2024-03-29T04:20:09;99233.59;;;5.54;100.00
7168;BME280;3625;51.762;14.320;2024-03-29T04:22:37;99233.66;;;5.53;100.00
7168;BME280;3625;51.762;14.320;2024-03-29T04:25:05;99227.63;;;5.48;100.00
7168;BME280;3625;51.762;14.320;2024-03-29T04:27:32;99230.31;;;5.45;100.00
7168;BME280;3625;51.762;14.320;2024-03-29T04:29:59;99227.91;;;5.34;100.00
7168;BME280;3625;51.762;14.320;2024-03-29T04:32:26;99222.69;;;5.34;100.00
7168;BME280;3625;51.762;14.320;2024-03-29T04:34:53;99225.13;;;5.42;100.00
7168;BME280;3625;51.762;14.320;2024-03-29T04:37:20;99233.75;;;5.47;100.00
7168;BME280;3625;51.762;14.320;2024-03-29T04:39:49;99237.22;;;5.49;100.00
7168;BME280;3625;51.762;14.320;2024-03-29T04:42:16;99217.25;;;5.43;100.00
7168;BME280;3625;51.762;14.320;2024-03-29T04:44:44;99214.31;;;5.57;100.00
7168;BME280;3625;51.762;14.320;2024-03-29T04:47:11;99223.78;;;5.62;100.00
7168;BME280;3625;51.762;14.320;2024-03-29T04:49:39;99231.63;;;5.64;100.00
7168;BME280;3625;51.762;14.320;2024-03-29T04:52:07;99237.75;;;5.64;100.00
7168;BME280;3625;51.762;14.320;2024-03-29T04:54:34;99236.69;;;5.72;100.00
7168;BME280;3625;51.762;14.320;2024-03-29T04:57:04;99244.25;;;5.87;100.00
7168;BME280;3625;51.762;14.320;2024-03-29T04:59:32;99230.25;;;5.86;100.00
7168;BME280;3625;51.762;14.320;2024-03-29T05:02:00;99233.22;;;6.11;100.00
7168;BME280;3625;51.762;14.320;2024-03-29T05:04:28;99199.06;;;6.13;100.00
7168;BME280;3625;51.762;14.320;2024-03-29T05:06:57;99235.06;;;6.41;100.00
7168;BME280;3625;51.762;14.320;2024-03-29T05:09:25;99249.66;;;6.53;100.00
7168;BME280;3625;51.762;14.320;2024-03-29T05:11:53;99243.34;;;6.60;100.00
7168;BME280;3625;51.762;14.320;2024-03-29T05:14:22;99223.34;;;6.56;100.00
7168;BME280;3625;51.762;14.320;2024-03-29T05:16:50;99244.47;;;6.84;100.00
7168;BME280;3625;51.762;14.320;2024-03-29T05:19:19;99250.28;;;6.97;100.00
7168;BME280;3625;51.762;14.320;2024-03-29T05:21:46;99252.59;;;7.09;100.00
7168;BME280;3625;51.762;14.320;2024-03-29T05:24:13;99253.09;;;7.22;100.00
7168;BME280;3625;51.762;14.320;2024-03-29T05:26:41;99244.78;;;7.35;100.00
7168;BME280;3625;51.762;14.320;2024-03-29T05:29:08;99141.69;;;6.93;100.00
7168;BME280;3625;51.762;14.320;2024-03-29T05:31:37;99234.97;;;7.71;100.00
7168;BME280;3625;51.762;14.320;2024-03-29T05:34:05;99211.44;;;7.67;100.00
7168;BME280;3625;51.762;14.320;2024-03-29T05:36:32;99236.94;;;7.92;100.00
7168;BME280;3625;51.762;14.320;2024-03-29T05:38:59;99239.25;;;8.03;100.00
7168;BME280;3625;51.762;14.320;2024-03-29T05:41:27;99236.47;;;8.08;100.00
7168;BME280;3625;51.762;14.320;2024-03-29T05:43:54;99180.19;;;7.84;100.00
7168;BME280;3625;51.762;14.320;2024-03-29T05:46:22;99216.25;;;8.08;100.00
7168;BME280;3625;51.762;14.320;2024-03-29T05:48:51;99198.16;;;7.97;100.00
7168;BME280;3625;51.762;14.320;2024-03-29T05:51:18;99238.75;;;8.18;100.00
7168;BME280;3625;51.762;14.320;2024-03-29T05:53:46;99239.16;;;8.34;100.00
7168;BME280;3625;51.762;14.320;2024-03-29T05:56:13;99222.50;;;8.58;100.00
7168;BME280;3625;51.762;14.320;2024-03-29T05:58:41;99226.94;;;8.83;100.00
7168;BME280;3625;51.762;14.320;2024-03-29T06:01:09;99228.16;;;8.99;100.00
7168;BME280;3625;51.762;14.320;2024-03-29T06:03:36;99235.75;;;9.08;100.00
7168;BME280;3625;51.762;14.320;2024-03-29T06:06:05;99248.78;;;9.11;100.00
7168;BME280;3625;51.762;14.320;2024-03-29T06:08:33;99258.69;;;9.29;100.00
7168;BME280;3625;51.762;14.320;2024-03-29T06:11:00;99258.66;;;9.54;100.00
7168;BME280;3625;51.762;14.320;2024-03-29T06:13:28;99253.34;;;9.77;100.00
7168;BME280;3625;51.762;14.320;2024-03-29T06:16:16;99243.25;;;9.89;100.00
7168;BME280;3625;51.762;14.320;2024-03-29T06:19:02;99278.84;;;10.25;100.00
7168;BME280;3625;51.762;14.320;2024-03-29T06:21:31;99248.41;;;10.13;98.53
7168;BME280;3625;51.762;14.320;2024-03-29T06:24:05;99286.19;;;10.39;96.50
7168;BME280;3625;51.762;14.320;2024-03-29T06:26:33;99287.81;;;10.43;94.57
7168;BME280;3625;51.762;14.320;2024-03-29T06:29:01;99267.34;;;10.26;91.17
7168;BME280;3625;51.762;14.320;2024-03-29T06:31:28;99297.78;;;10.36;93.83
7168;BME280;3625;51.762;14.320;2024-03-29T06:33:57;99289.41;;;10.25;94.31
7168;BME280;3625;51.762;14.320;2024-03-29T06:36:25;99297.38;;;10.24;93.57
7168;BME280;3625;51.762;14.320;2024-03-29T06:38:54;99294.50;;;10.30;94.79
7168;BME280;3625;51.762;14.320;2024-03-29T06:41:21;99292.84;;;10.49;94.48
7168;BME280;3625;51.762;14.320;2024-03-29T06:43:49;99298.72;;;10.77;91.14
7168;BME280;3625;51.762;14.320;2024-03-29T06:46:17;99306.88;;;10.93;86.90
7168;BME280;3625;51.762;14.320;2024-03-29T06:48:44;99285.22;;;10.83;85.13
7168;BME280;3625;51.762;14.320;2024-03-29T06:51:12;99309.94;;;11.04;83.67
7168;BME280;3625;51.762;14.320;2024-03-29T06:53:39;99314.97;;;11.30;84.14
7168;BME280;3625;51.762;14.320;2024-03-29T06:56:08;99324.69;;;11.50;80.61
7168;BME280;3625;51.762;14.320;2024-03-29T06:58:36;99318.50;;;11.70;78.42
7168;BME280;3625;51.762;14.320;2024-03-29T07:01:03;99320.34;;;11.88;76.29
7168;BME280;3625;51.762;14.320;2024-03-29T07:03:31;99327.03;;;11.97;73.54
7168;BME280;3625;51.762;14.320;2024-03-29T07:05:58;99327.59;;;12.03;71.79
7168;BME280;3625;51.762;14.320;2024-03-29T07:08:26;99347.03;;;12.23;72.58
7168;BME280;3625;51.762;14.320;2024-03-29T07:11:00;99338.78;;;12.29;70.13
7168;BME280;3625;51.762;14.320;2024-03-29T07:13:31;99333.75;;;12.23;68.75
7168;BME280;3625;51.762;14.320;2024-03-29T07:15:59;99342.72;;;12.20;68.19
7168;BME280;3625;51.762;14.320;2024-03-29T07:18:26;99343.75;;;12.18;66.49
7168;BME280;3625;51.762;14.320;2024-03-29T07:20:54;99335.13;;;12.13;66.44
7168;BME280;3625;51.762;14.320;2024-03-29T07:23:22;99353.75;;;12.30;64.12
7168;BME280;3625;51.762;14.320;2024-03-29T07:26:00;99361.56;;;12.52;64.65
7168;BME280;3625;51.762;14.320;2024-03-29T07:28:30;99350.16;;;12.68;64.19
7168;BME280;3625;51.762;14.320;2024-03-29T07:31:05;99362.34;;;12.90;63.14
7168;BME280;3625;51.762;14.320;2024-03-29T07:33:34;99368.94;;;13.00;62.12
7168;BME280;3625;51.762;14.320;2024-03-29T07:36:02;99376.28;;;12.95;59.65
7168;BME280;3625;51.762;14.320;2024-03-29T07:38:30;99368.44;;;12.92;60.26
7168;BME280;3625;51.762;14.320;2024-03-29T07:40:57;99375.56;;;12.91;60.74
7168;BME280;3625;51.762;14.320;2024-03-29T07:43:25;99365.88;;;12.90;61.60
7168;BME280;3625;51.762;14.320;2024-03-29T07:45:54;99364.53;;;12.81;62.50
7168;BME280;3625;51.762;14.320;2024-03-29T07:48:21;99368.66;;;12.70;63.31
7168;BME280;3625;51.762;14.320;2024-03-29T07:50:49;99367.63;;;12.72;63.30
7168;BME280;3625;51.762;14.320;2024-03-29T07:53:16;99403.41;;;12.82;62.23
7168;BME280;3625;51.762;14.320;2024-03-29T07:55:44;99386.91;;;12.95;60.90
7168;BME280;3625;51.762;14.320;2024-03-29T07:58:11;99383.28;;;13.14;61.07
7168;BME280;3625;51.762;14.320;2024-03-29T08:00:40;99387.13;;;13.43;59.73
7168;BME280;3625;51.762;14.320;2024-03-29T08:03:09;99392.97;;;13.67;58.23
7168;BME280;3625;51.762;14.320;2024-03-29T08:05:37;99420.38;;;13.85;56.68
7168;BME280;3625;51.762;14.320;2024-03-29T08:08:05;99419.22;;;13.90;55.97
7168;BME280;3625;51.762;14.320;2024-03-29T08:10:33;99386.50;;;14.06;56.33
7168;BME280;3625;51.762;14.320;2024-03-29T08:13:00;99415.53;;;14.43;55.64
7168;BME280;3625;51.762;14.320;2024-03-29T08:15:28;99411.41;;;14.53;54.96
7168;BME280;3625;51.762;14.320;2024-03-29T08:17:57;99424.28;;;14.45;53.08
7168;BME280;3625;51.762;14.320;2024-03-29T08:20:25;99425.59;;;14.36;53.31
7168;BME280;3625;51.762;14.320;2024-03-29T08:22:58;99438.47;;;14.28;52.58
7168;BME280;3625;51.762;14.320;2024-03-29T08:25:24;99430.16;;;14.34;53.26
7168;BME280;3625;51.762;14.320;2024-03-29T08:27:53;99438.91;;;14.36;51.72
7168;BME280;3625;51.762;14.320;2024-03-29T08:30:25;99436.81;;;14.43;51.10
7168;BME280;3625;51.762;14.320;2024-03-29T08:32:52;99424.47;;;14.58;50.46
7168;BME280;3625;51.762;14.320;2024-03-29T08:35:20;99436.78;;;14.76;50.78
7168;BME280;3625;51.762;14.320;2024-03-29T08:37:49;99437.13;;;14.86;49.62
7168;BME280;3625;51.762;14.320;2024-03-29T08:40:17;99438.22;;;14.97;48.65
7168;BME280;3625;51.762;14.320;2024-03-29T08:42:45;99415.94;;;15.14;48.60
7168;BME280;3625;51.762;14.320;2024-03-29T08:45:13;99401.16;;;15.24;46.94
7168;BME280;3625;51.762;14.320;2024-03-29T08:47:40;99440.25;;;15.55;47.54
7168;BME280;3625;51.762;14.320;2024-03-29T08:50:08;99424.09;;;15.72;46.89
7168;BME280;3625;51.762;14.320;2024-03-29T08:52:36;99431.38;;;15.99;45.70
7168;BME280;3625;51.762;14.320;2024-03-29T08:55:07;99437.22;;;16.19;45.14
7168;BME280;3625;51.762;14.320;2024-03-29T08:57:35;99430.84;;;16.22;44.65
7168;BME280;3625;51.762;14.320;2024-03-29T09:00:04;99437.41;;;16.45;44.78
7168;BME280;3625;51.762;14.320;2024-03-29T09:02:32;99429.69;;;16.40;44.04
7168;BME280;3625;51.762;14.320;2024-03-29T09:05:00;99435.69;;;16.30;42.89
7168;BME280;3625;51.762;14.320;2024-03-29T09:07:28;99426.06;;;16.27;43.31
7168;BME280;3625;51.762;14.320;2024-03-29T09:09:56;99434.16;;;16.40;43.44
7168;BME280;3625;51.762;14.320;2024-03-29T09:12:24;99414.41;;;16.56;43.29
7168;BME280;3625;51.762;14.320;2024-03-29T09:14:52;99437.38;;;16.87;42.48
7168;BME280;3625;51.762;14.320;2024-03-29T09:17:19;99442.97;;;17.11;42.00
7168;BME280;3625;51.762;14.320;2024-03-29T09:19:50;99427.78;;;17.12;41.63
7168;BME280;3625;51.762;14.320;2024-03-29T09:22:19;99442.16;;;17.23;42.03
7168;BME280;3625;51.762;14.320;2024-03-29T09:24:46;99432.38;;;17.10;41.05
7168;BME280;3625;51.762;14.320;2024-03-29T09:27:14;99416.84;;;17.02;41.64
7168;BME280;3625;51.762;14.320;2024-03-29T09:29:47;99423.56;;;16.95;41.22
7168;BME280;3625;51.762;14.320;2024-03-29T09:32:15;99427.28;;;16.92;41.62
7168;BME280;3625;51.762;14.320;2024-03-29T09:34:43;99422.22;;;17.15;41.03
7168;BME280;3625;51.762;14.320;2024-03-29T09:37:11;99421.22;;;17.30;40.88
7168;BME280;3625;51.762;14.320;2024-03-29T09:39:39;99418.16;;;17.49;40.47
7168;BME280;3625;51.762;14.320;2024-03-29T09:42:10;99411.31;;;17.84;40.32
7168;BME280;3625;51.762;14.320;2024-03-29T09:44:44;99404.16;;;18.23;39.66
7168;BME280;3625;51.762;14.320;2024-03-29T09:47:17;99414.84;;;18.48;39.64
7168;BME280;3625;51.762;14.320;2024-03-29T09:49:47;99385.09;;;18.40;39.64
7168;BME280;3625;51.762;14.320;2024-03-29T09:52:17;99413.66;;;18.52;39.49
7168;BME280;3625;51.762;14.320;2024-03-29T09:54:45;99421.81;;;18.51;38.73
7168;BME280;3625;51.762;14.320;2024-03-29T09:57:13;99417.00;;;18.30;37.85
7168;BME280;3625;51.762;14.320;2024-03-29T09:59:44;99425.25;;;18.27;37.62
7168;BME280;3625;51.762;14.320;2024-03-29T10:02:15;99417.25;;;18.15;38.28
7168;BME280;3625;51.762;14.320;2024-03-29T10:04:46;99364.66;;;17.88;37.61
7168;BME280;3625;51.762;14.320;2024-03-29T10:07:15;99406.41;;;18.03;37.96
7168;BME280;3625;51.762;14.320;2024-03-29T10:09:43;99395.06;;;18.13;37.80
7168;BME280;3625;51.762;14.320;2024-03-29T10:12:11;99405.22;;;18.20;37.52
7168;BME280;3625;51.762;14.320;2024-03-29T10:14:47;99363.91;;;17.99;36.93
7168;BME280;3625;51.762;14.320;2024-03-29T10:17:19;99404.16;;;18.23;37.81
7168;BME280;3625;51.762;14.320;2024-03-29T10:19:46;99400.19;;;18.28;37.06
7168;BME280;3625;51.762;14.320;2024-03-29T10:22:14;99396.34;;;18.20;36.84
7168;BME280;3625;51.762;14.320;2024-03-29T10:24:42;99391.72;;;18.47;37.20
7168;BME280;3625;51.762;14.320;2024-03-29T10:27:10;99390.06;;;18.82;37.33
7168;BME280;3625;51.762;14.320;2024-03-29T10:29:39;99389.31;;;19.04;36.18
7168;BME280;3625;51.762;14.320;2024-03-29T10:32:09;99367.56;;;19.20;36.50
7168;BME280;3625;51.762;14.320;2024-03-29T10:34:36;99363.47;;;19.51;36.34
7168;BME280;3625;51.762;14.320;2024-03-29T10:37:04;99351.66;;;19.65;35.81
7168;BME280;3625;51.762;14.320;2024-03-29T10:39:32;99349.19;;;19.96;35.66
7168;BME280;3625;51.762;14.320;2024-03-29T10:42:01;99341.75;;;20.22;35.71
7168;BME280;3625;51.762;14.320;2024-03-29T10:44:30;99328.91;;;20.26;36.02
7168;BME280;3625;51.762;14.320;2024-03-29T10:47:01;99341.00;;;20.20;35.36
7168;BME280;3625;51.762;14.320;2024-03-29T10:49:32;99325.38;;;20.03;35.72
7168;BME280;3625;51.762;14.320;2024-03-29T10:52:02;99294.75;;;19.94;35.09
7168;BME280;3625;51.762;14.320;2024-03-29T10:54:34;99318.19;;;20.15;35.45
7168;BME280;3625;51.762;14.320;2024-03-29T10:57:10;99326.59;;;20.44;34.24
7168;BME280;3625;51.762;14.320;2024-03-29T10:59:49;99310.47;;;20.32;34.55
7168;BME280;3625;51.762;14.320;2024-03-29T11:02:35;99328.88;;;20.70;34.58
7168;BME280;3625;51.762;14.320;2024-03-29T11:05:12;99336.81;;;20.83;34.38
7168;BME280;3625;51.762;14.320;2024-03-29T11:07:43;99340.19;;;20.96;33.31
7168;BME280;3625;51.762;14.320;2024-03-29T11:10:17;99341.88;;;21.08;33.61
7168;BME280;3625;51.762;14.320;2024-03-29T11:13:03;99327.03;;;21.25;33.02
7168;BME280;3625;51.762;14.320;2024-03-29T11:15:38;99333.28;;;21.26;32.34
7168;BME280;3625;51.762;14.320;2024-03-29T11:18:08;99307.38;;;21.02;31.62
7168;BME280;3625;51.762;14.320;2024-03-29T11:20:39;99308.00;;;21.17;31.41
7168;BME280;3625;51.762;14.320;2024-03-29T11:23:11;99307.03;;;21.18;31.00
7168;BME280;3625;51.762;14.320;2024-03-29T11:25:41;99303.47;;;21.18;30.43
7168;BME280;3625;51.762;14.320;2024-03-29T11:28:11;99294.31;;;21.09;30.95
7168;BME280;3625;51.762;14.320;2024-03-29T11:30:43;99287.38;;;20.63;29.42
7168;BME280;3625;51.762;14.320;2024-03-29T11:33:27;99292.75;;;20.95;29.01
7168;BME280;3625;51.762;14.320;2024-03-29T11:35:58;99284.44;;;20.98;28.44
7168;BME280;3625;51.762;14.320;2024-03-29T11:38:32;99268.00;;;20.81;28.61
7168;BME280;3625;51.762;14.320;2024-03-29T11:41:04;99283.09;;;20.61;28.53
7168;BME280;3625;51.762;14.320;2024-03-29T11:43:33;99281.91;;;20.43;28.73
7168;BME280;3625;51.762;14.320;2024-03-29T11:46:03;99296.47;;;20.40;29.37
7168;BME280;3625;51.762;14.320;2024-03-29T11:48:30;99299.88;;;20.31;29.04
7168;BME280;3625;51.762;14.320;2024-03-29T11:51:01;99289.75;;;20.12;29.53
7168;BME280;3625;51.762;14.320;2024-03-29T11:53:30;99298.31;;;20.06;29.54
7168;BME280;3625;51.762;14.320;2024-03-29T11:55:59;99300.84;;;20.30;29.66
7168;BME280;3625;51.762;14.320;2024-03-29T11:58:28;99278.75;;;20.49;29.94
7168;BME280;3625;51.762;14.320;2024-03-29T12:00:57;99311.38;;;20.76;29.69
7168;BME280;3625;51.762;14.320;2024-03-29T12:03:27;99280.63;;;20.69;30.00
7168;BME280;3625;51.762;14.320;2024-03-29T12:05:57;99280.81;;;20.88;29.86
7168;BME280;3625;51.762;14.320;2024-03-29T12:08:30;99297.19;;;20.85;29.15
7168;BME280;3625;51.762;14.320;2024-03-29T12:10:59;99321.03;;;20.90;29.31
7168;BME280;3625;51.762;14.320;2024-03-29T12:13:27;99312.06;;;21.00;29.56
7168;BME280;3625;51.762;14.320;2024-03-29T12:15:56;99311.47;;;20.97;29.34
7168;BME280;3625;51.762;14.320;2024-03-29T12:18:25;99282.78;;;20.86;29.40
7168;BME280;3625;51.762;14.320;2024-03-29T12:20:55;99303.03;;;21.01;28.69
7168;BME280;3625;51.762;14.320;2024-03-29T12:23:23;99310.47;;;20.98;28.62
7168;BME280;3625;51.762;14.320;2024-03-29T12:25:55;99310.69;;;21.06;28.69
7168;BME280;3625;51.762;14.320;2024-03-29T12:28:24;99311.53;;;21.06;28.88
7168;BME280;3625;51.762;14.320;2024-03-29T12:30:53;99316.06;;;21.06;28.80
7168;BME280;3625;51.762;14.320;2024-03-29T12:33:22;99318.22;;;21.23;29.15
7168;BME280;3625;51.762;14.320;2024-03-29T12:35:52;99286.25;;;21.09;29.18
7168;BME280;3625;51.762;14.320;2024-03-29T12:38:27;99312.59;;;21.26;29.01
7168;BME280;3625;51.762;14.320;2024-03-29T12:41:07;99043.97;;;19.43;28.98
7168;BME280;3625;51.762;14.320;2024-03-29T12:43:42;99216.56;;;20.42;29.55
7168;BME280;3625;51.762;14.320;2024-03-29T12:46:11;99175.47;;;20.19;28.90
7168;BME280;3625;51.762;14.320;2024-03-29T12:48:46;99308.84;;;21.06;29.24
7168;BME280;3625;51.762;14.320;2024-03-29T12:51:18;99294.66;;;20.84;29.09
7168;BME280;3625;51.762;14.320;2024-03-29T12:53:48;99310.69;;;20.74;29.35
7168;BME280;3625;51.762;14.320;2024-03-29T12:56:18;99294.81;;;20.71;29.75
7168;BME280;3625;51.762;14.320;2024-03-29T12:58:46;99316.91;;;20.75;29.64
7168;BME280;3625;51.762;14.320;2024-03-29T13:01:13;99284.69;;;20.63;30.15
7168;BME280;3625;51.762;14.320;2024-03-29T13:03:41;99304.47;;;20.74;30.09
7168;BME280;3625;51.762;14.320;2024-03-29T13:06:10;99304.91;;;20.79;30.35
7168;BME280;3625;51.762;14.320;2024-03-29T13:08:38;99291.75;;;20.76;30.74
7168;BME280;3625;51.762;14.320;2024-03-29T13:11:06;99254.78;;;20.57;30.93
7168;BME280;3625;51.762;14.320;2024-03-29T13:13:35;99290.38;;;20.81;31.11
7168;BME280;3625;51.762;14.320;2024-03-29T13:16:05;99281.44;;;20.92;31.37
7168;BME280;3625;51.762;14.320;2024-03-29T13:18:33;99285.09;;;20.91;31.24